createdAt,value
2018-09-06T00:00:23.486Z,0.00
2018-09-06T00:01:23.729Z,0.00
2018-09-06T00:02:23.972Z,0.00
2018-09-06T00:03:24.219Z,0.00
2018-09-06T00:04:32.092Z,0.00
2018-09-06T00:05:24.765Z,0.00
2018-09-06T00:06:25.009Z,0.00
2018-09-06T00:07:25.253Z,0.00
2018-09-06T00:08:25.496Z,0.00
2018-09-06T00:09:25.742Z,0.00
2018-09-06T00:10:25.987Z,0.00
2018-09-06T00:11:26.230Z,0.00
2018-09-06T00:12:26.475Z,0.00
2018-09-06T00:13:26.719Z,0.00
2018-09-06T00:14:26.966Z,0.00
2018-09-06T00:15:27.211Z,0.00
2018-09-06T00:16:27.452Z,0.00
2018-09-06T00:17:27.697Z,0.00
2018-09-06T00:18:27.939Z,0.00
2018-09-06T00:19:28.185Z,0.00
2018-09-06T00:20:28.428Z,0.00
2018-09-06T00:21:28.672Z,0.00
2018-09-06T00:22:28.914Z,0.00
2018-09-06T00:23:29.160Z,0.00
2018-09-06T00:24:29.404Z,0.00
2018-09-06T00:25:29.648Z,0.00
2018-09-06T00:26:29.893Z,0.00
2018-09-06T00:27:30.143Z,0.00
2018-09-06T00:28:30.385Z,0.00
2018-09-06T00:29:30.630Z,0.00
2018-09-06T00:30:30.874Z,0.00
2018-09-06T00:31:31.120Z,0.00
2018-09-06T00:32:31.363Z,0.00
2018-09-06T00:33:31.605Z,0.00
2018-09-06T00:34:31.849Z,0.00
2018-09-06T00:35:32.094Z,0.00
2018-09-06T00:36:32.337Z,0.00
2018-09-06T00:37:32.584Z,0.00
2018-09-06T00:38:32.825Z,0.00
2018-09-06T00:39:33.072Z,0.00
2018-09-06T00:40:33.312Z,0.00
2018-09-06T00:41:33.556Z,0.00
2018-09-06T00:42:33.800Z,0.00
2018-09-06T00:43:34.044Z,0.00
2018-09-06T00:44:34.286Z,0.00
2018-09-06T00:45:34.529Z,0.00
2018-09-06T00:46:34.763Z,0.00
2018-09-06T00:47:35.004Z,0.00
2018-09-06T00:48:35.246Z,0.00
2018-09-06T00:49:35.492Z,0.00
2018-09-06T00:50:35.735Z,0.00
2018-09-06T00:51:35.975Z,0.00
2018-09-06T00:52:36.215Z,0.00
2018-09-06T00:53:36.459Z,0.00
2018-09-06T00:54:36.701Z,0.00
2018-09-06T00:55:36.943Z,0.00
2018-09-06T00:56:37.185Z,0.00
2018-09-06T00:57:37.433Z,0.00
2018-09-06T00:58:37.666Z,0.00
2018-09-06T00:59:37.908Z,0.00
2018-09-06T01:00:38.152Z,0.00
2018-09-06T01:01:38.393Z,0.00
2018-09-06T01:02:38.637Z,0.00
2018-09-06T01:03:38.875Z,0.00
2018-09-06T01:04:39.118Z,0.00
2018-09-06T01:05:39.360Z,0.00
2018-09-06T01:06:39.603Z,0.00
2018-09-06T01:07:39.843Z,0.00
2018-09-06T01:08:40.086Z,0.00
2018-09-06T01:09:40.330Z,0.00
2018-09-06T01:10:40.572Z,0.00
2018-09-06T01:11:40.814Z,0.00
2018-09-06T01:12:41.056Z,0.00
2018-09-06T01:13:41.302Z,0.00
2018-09-06T01:14:41.541Z,0.00
2018-09-06T01:15:41.782Z,0.00
2018-09-06T01:16:42.023Z,0.00
2018-09-06T01:17:42.265Z,0.00
2018-09-06T01:18:42.510Z,0.00
2018-09-06T01:19:42.753Z,0.00
2018-09-06T01:20:42.993Z,0.00
2018-09-06T01:21:43.237Z,0.00
2018-09-06T01:22:43.481Z,0.00
2018-09-06T01:23:43.723Z,0.00
2018-09-06T01:24:43.962Z,0.00
2018-09-06T01:25:44.206Z,0.00
2018-09-06T01:26:44.453Z,0.00
2018-09-06T01:27:44.696Z,0.00
2018-09-06T01:28:44.936Z,0.00
2018-09-06T01:29:45.181Z,0.00
2018-09-06T01:30:45.423Z,0.00
2018-09-06T01:31:45.666Z,0.00
2018-09-06T01:32:45.910Z,0.00
2018-09-06T01:33:46.151Z,0.00
2018-09-06T01:34:46.389Z,0.00
2018-09-06T01:35:46.634Z,0.00
2018-09-06T01:36:46.921Z,0.00
2018-09-06T01:37:47.120Z,0.00
2018-09-06T01:38:47.363Z,0.00
2018-09-06T01:39:47.604Z,0.00
2018-09-06T01:40:47.845Z,0.00
2018-09-06T01:41:48.091Z,0.00
2018-09-06T01:42:48.331Z,0.00
2018-09-06T01:43:48.574Z,0.00
2018-09-06T01:44:48.819Z,0.00
2018-09-06T01:45:49.058Z,0.00
2018-09-06T01:46:49.301Z,0.00
2018-09-06T01:47:49.545Z,0.00
2018-09-06T01:48:49.788Z,0.00
2018-09-06T01:49:50.029Z,0.00
2018-09-06T01:50:50.270Z,0.00
2018-09-06T01:51:50.513Z,0.00
2018-09-06T01:52:50.752Z,0.00
2018-09-06T01:53:50.997Z,0.00
2018-09-06T01:54:51.239Z,0.00
2018-09-06T01:55:51.483Z,0.00
2018-09-06T01:56:51.731Z,0.00
2018-09-06T01:57:51.968Z,0.00
2018-09-06T01:58:52.210Z,0.00
2018-09-06T01:59:52.453Z,0.00
2018-09-06T02:00:52.693Z,0.00
2018-09-06T02:01:52.943Z,0.00
2018-09-06T02:02:53.180Z,0.00
2018-09-06T02:03:53.419Z,0.00
2018-09-06T02:04:53.663Z,0.00
2018-09-06T02:05:53.905Z,0.00
2018-09-06T02:06:54.148Z,0.00
2018-09-06T02:07:54.391Z,0.00
2018-09-06T02:08:54.632Z,0.00
2018-09-06T02:09:54.877Z,0.00
2018-09-06T02:10:55.117Z,0.00
2018-09-06T02:11:55.357Z,0.00
2018-09-06T02:13:03.231Z,0.00
2018-09-06T02:13:55.905Z,0.00
2018-09-06T02:14:56.149Z,0.00
2018-09-06T02:15:56.386Z,0.00
2018-09-06T02:16:56.628Z,0.00
2018-09-06T02:17:56.868Z,0.00
2018-09-06T02:18:57.110Z,0.00
2018-09-06T02:19:57.354Z,0.00
2018-09-06T02:20:57.595Z,0.00
2018-09-06T02:21:57.840Z,0.00
2018-09-06T02:22:58.078Z,0.00
2018-09-06T02:23:58.319Z,0.00
2018-09-06T02:24:58.562Z,0.00
2018-09-06T02:25:58.803Z,0.00
2018-09-06T02:26:59.046Z,0.00
2018-09-06T02:27:59.284Z,0.00
2018-09-06T02:28:59.530Z,0.00
2018-09-06T02:29:59.771Z,0.00
2018-09-06T02:31:00.012Z,0.00
2018-09-06T02:32:00.254Z,0.00
2018-09-06T02:33:00.498Z,0.00
2018-09-06T02:34:00.739Z,0.00
2018-09-06T02:35:00.980Z,0.00
2018-09-06T02:36:01.222Z,0.00
2018-09-06T02:37:01.469Z,0.00
2018-09-06T02:38:01.714Z,0.00
2018-09-06T02:39:01.951Z,0.00
2018-09-06T02:40:02.191Z,0.00
2018-09-06T02:41:02.438Z,0.00
2018-09-06T02:42:02.678Z,0.00
2018-09-06T02:43:02.917Z,0.00
2018-09-06T02:44:03.160Z,0.00
2018-09-06T02:45:03.403Z,0.00
2018-09-06T02:46:03.642Z,0.00
2018-09-06T02:47:03.884Z,0.00
2018-09-06T02:48:04.127Z,0.00
2018-09-06T02:49:04.369Z,0.00
2018-09-06T02:50:04.612Z,0.00
2018-09-06T02:51:04.856Z,0.00
2018-09-06T02:52:05.096Z,0.00
2018-09-06T02:53:05.338Z,0.00
2018-09-06T02:54:05.580Z,0.00
2018-09-06T02:55:05.822Z,0.00
2018-09-06T02:56:06.081Z,0.00
2018-09-06T02:57:06.305Z,0.00
2018-09-06T02:58:06.547Z,0.00
2018-09-06T02:59:06.789Z,0.00
2018-09-06T03:00:07.031Z,0.00
2018-09-06T03:01:07.274Z,0.00
2018-09-06T03:02:07.513Z,0.00
2018-09-06T03:03:07.756Z,0.00
2018-09-06T03:04:08.000Z,0.00
2018-09-06T03:05:08.241Z,0.00
2018-09-06T03:06:08.483Z,0.00
2018-09-06T03:07:08.726Z,0.00
2018-09-06T03:08:08.969Z,0.00
2018-09-06T03:09:09.210Z,0.00
2018-09-06T03:10:09.455Z,0.00
2018-09-06T03:11:09.695Z,0.00
2018-09-06T03:12:09.936Z,0.00
2018-09-06T03:13:10.178Z,0.00
2018-09-06T03:14:10.421Z,0.00
2018-09-06T03:15:10.662Z,0.00
2018-09-06T03:16:10.904Z,0.00
2018-09-06T03:17:11.147Z,0.00
2018-09-06T03:18:11.389Z,0.00
2018-09-06T03:19:11.632Z,0.00
2018-09-06T03:20:11.871Z,0.00
2018-09-06T03:21:12.117Z,0.00
2018-09-06T03:22:12.357Z,0.00
2018-09-06T03:23:12.599Z,0.00
2018-09-06T03:24:12.840Z,0.00
2018-09-06T03:25:13.084Z,0.00
2018-09-06T03:26:13.327Z,0.00
2018-09-06T03:27:13.569Z,0.00
2018-09-06T03:28:13.811Z,0.00
2018-09-06T03:29:14.054Z,0.00
2018-09-06T03:30:14.298Z,0.00
2018-09-06T03:31:14.539Z,0.00
2018-09-06T03:32:14.780Z,0.00
2018-09-06T03:33:15.022Z,0.00
2018-09-06T03:34:15.268Z,0.00
2018-09-06T03:35:15.508Z,0.00
2018-09-06T03:36:15.747Z,0.00
2018-09-06T03:37:15.989Z,0.00
2018-09-06T03:38:16.231Z,0.00
2018-09-06T03:39:16.474Z,0.00
2018-09-06T03:40:16.716Z,0.00
2018-09-06T03:41:16.958Z,0.00
2018-09-06T03:42:17.202Z,0.00
2018-09-06T03:43:17.442Z,0.00
2018-09-06T03:44:17.684Z,0.00
2018-09-06T03:45:17.928Z,0.00
2018-09-06T03:46:18.167Z,0.00
2018-09-06T03:47:18.409Z,0.00
2018-09-06T03:48:18.652Z,0.00
2018-09-06T03:49:18.893Z,0.00
2018-09-06T03:50:19.141Z,0.00
2018-09-06T03:51:19.378Z,0.00
2018-09-06T03:52:19.618Z,0.00
2018-09-06T03:53:19.883Z,0.00
2018-09-06T03:54:20.101Z,0.00
2018-09-06T03:55:20.343Z,0.00
2018-09-06T03:56:20.587Z,0.00
2018-09-06T03:57:20.826Z,0.00
2018-09-06T03:58:21.070Z,0.00
2018-09-06T03:59:21.310Z,0.00
2018-09-06T04:00:21.553Z,0.00
2018-09-06T04:01:21.796Z,0.00
2018-09-06T04:02:22.034Z,0.00
2018-09-06T04:03:22.277Z,0.00
2018-09-06T04:04:22.518Z,0.00
2018-09-06T04:05:22.762Z,0.00
2018-09-06T04:06:22.990Z,0.00
2018-09-06T04:07:23.238Z,0.00
2018-09-06T04:08:23.483Z,0.00
2018-09-06T04:09:23.723Z,4.00
2018-09-06T04:10:23.968Z,4.00
2018-09-06T04:11:24.205Z,0.00
2018-09-06T04:12:24.447Z,4.00
2018-09-06T04:13:24.689Z,4.00
2018-09-06T04:14:24.931Z,8.00
2018-09-06T04:15:25.173Z,8.00
2018-09-06T04:16:25.413Z,8.00
2018-09-06T04:17:25.656Z,8.00
2018-09-06T04:18:25.906Z,12.00
2018-09-06T04:19:26.139Z,12.00
2018-09-06T04:20:26.381Z,16.00
2018-09-06T04:21:34.247Z,16.00
2018-09-06T04:22:26.917Z,24.00
2018-09-06T04:23:27.159Z,24.00
2018-09-06T04:24:27.470Z,32.00
2018-09-06T04:25:27.642Z,36.00
2018-09-06T04:26:27.882Z,44.00
2018-09-06T04:27:28.129Z,52.00
2018-09-06T04:28:28.366Z,60.00
2018-09-06T04:29:28.612Z,72.00
2018-09-06T04:30:28.856Z,84.00
2018-09-06T04:31:29.093Z,92.00
2018-09-06T04:32:29.336Z,108.00
2018-09-06T05:16:46.450Z,2104.00
2018-09-06T05:17:46.692Z,2172.00
2018-09-06T05:18:46.930Z,2248.00
2018-09-06T05:19:47.176Z,2324.00
2018-09-06T05:20:47.410Z,2400.00
2018-09-06T05:21:47.701Z,2480.00
2018-09-06T05:22:47.894Z,2560.00
2018-09-06T05:23:48.128Z,2640.00
2018-09-06T05:24:48.373Z,2728.00
2018-09-06T05:25:48.610Z,2816.00
2018-09-06T05:26:48.851Z,2896.00
2018-09-06T05:27:49.094Z,2976.00
2018-09-06T05:28:49.332Z,3060.00
2018-09-06T05:29:49.572Z,3152.00
2018-09-06T05:30:49.894Z,3240.00
2018-09-06T05:31:50.053Z,3332.00
2018-09-06T05:32:50.298Z,3416.00
2018-09-06T05:33:50.539Z,3512.00
2018-09-06T05:34:50.777Z,3608.00
2018-09-06T05:35:51.022Z,3708.00
2018-09-06T05:36:51.264Z,3808.00
2018-09-06T05:37:51.504Z,3912.00
2018-09-06T05:38:51.746Z,4012.00
2018-09-06T05:39:51.986Z,4108.00
2018-09-06T05:40:52.255Z,4208.00
2018-09-06T05:41:52.471Z,4308.00
2018-09-06T05:42:52.711Z,4404.00
2018-09-06T05:43:52.951Z,4500.00
2018-09-06T05:44:53.198Z,4596.00
2018-09-06T05:45:53.437Z,4692.00
2018-09-06T05:46:53.678Z,4788.00
2018-09-06T05:47:53.905Z,4884.00
2018-09-06T05:48:54.146Z,4984.00
2018-09-06T05:49:54.385Z,5084.00
2018-09-06T05:50:54.625Z,5180.00
2018-09-06T05:51:54.865Z,5272.00
2018-09-06T05:52:55.106Z,5372.00
2018-09-06T05:53:55.350Z,5468.00
2018-09-06T05:54:55.590Z,5572.00
2018-09-06T05:55:55.832Z,5672.00
2018-09-06T05:56:56.073Z,5776.00
2018-09-06T05:57:56.344Z,5876.00
2018-09-06T05:58:56.558Z,5976.00
2018-09-06T05:59:56.835Z,6076.00
2018-09-06T06:00:57.041Z,6160.00
2018-09-06T06:01:57.289Z,6252.00
2018-09-06T06:02:57.535Z,6344.00
2018-09-06T06:03:57.779Z,6432.00
2018-09-06T06:04:58.022Z,6528.00
2018-09-06T06:05:58.262Z,6636.00
2018-09-06T06:06:58.506Z,6744.00
2018-09-06T06:07:58.735Z,6852.00
2018-09-06T06:08:58.997Z,6960.00
2018-09-06T06:09:59.241Z,7068.00
2018-09-06T06:10:59.482Z,7172.00
2018-09-06T06:11:59.745Z,7276.00
2018-09-06T06:12:59.967Z,7384.00
2018-09-06T06:14:00.207Z,7496.00
2018-09-06T06:15:00.450Z,7608.00
2018-09-06T06:16:00.728Z,7780.00
2018-09-06T06:17:00.927Z,8016.00
2018-09-06T06:18:01.167Z,8240.00
2018-09-06T06:19:01.422Z,8400.00
2018-09-06T06:20:01.663Z,8524.00
2018-09-06T06:21:01.894Z,8676.00
2018-09-06T06:22:02.129Z,8852.00
2018-09-06T06:23:02.374Z,9200.00
2018-09-06T06:24:02.617Z,9660.00
2018-09-06T06:25:02.860Z,9928.00
2018-09-06T06:26:03.180Z,10244.00
2018-09-06T06:27:03.341Z,10504.00
2018-09-06T06:28:03.589Z,10648.00
2018-09-06T06:29:03.848Z,10868.00
2018-09-06T06:30:04.073Z,11032.00
2018-09-06T06:31:04.319Z,10844.00
2018-09-06T06:32:04.556Z,10992.00
2018-09-06T06:33:12.444Z,11352.00
2018-09-06T06:34:05.140Z,11280.00
2018-09-06T06:35:05.366Z,11484.00
2018-09-06T06:36:05.609Z,11704.00
2018-09-06T06:37:05.855Z,12076.00
2018-09-06T06:38:06.102Z,12572.00
2018-09-06T06:39:06.347Z,12372.00
2018-09-06T06:40:06.584Z,12248.00
2018-09-06T06:41:06.815Z,12604.00
2018-09-06T06:42:07.053Z,12684.00
2018-09-06T06:43:07.298Z,12860.00
2018-09-06T06:44:07.541Z,13300.00
2018-09-06T06:45:07.784Z,13184.00
2018-09-06T06:46:08.032Z,13492.00
2018-09-06T06:47:08.276Z,13836.00
2018-09-06T06:48:08.525Z,13432.00
2018-09-06T06:49:08.770Z,13424.00
2018-09-06T06:50:09.018Z,14044.00
2018-09-06T06:51:09.262Z,14236.00
2018-09-06T06:52:09.515Z,14004.00
2018-09-06T06:53:09.772Z,14384.00
2018-09-06T06:54:10.011Z,14480.00
2018-09-06T06:55:10.247Z,14528.00
2018-09-06T06:56:10.490Z,14904.00
2018-09-06T06:57:10.732Z,15184.00
2018-09-06T06:58:10.969Z,15704.00
2018-09-06T06:59:11.214Z,15240.00
2018-09-06T07:00:11.460Z,14576.00
2018-09-06T07:01:11.704Z,14496.00
2018-09-06T07:02:11.955Z,14728.00
2018-09-06T07:03:12.203Z,15160.00
2018-09-06T07:04:12.487Z,15336.00
2018-09-06T07:05:12.698Z,16064.00
2018-09-06T07:06:12.944Z,17024.00
2018-09-06T07:07:13.225Z,17952.00
2018-09-06T07:08:13.440Z,18272.00
2018-09-06T07:09:13.687Z,18080.00
2018-09-06T07:10:13.936Z,17760.00
2018-09-06T07:11:14.183Z,18048.00
2018-09-06T07:12:14.433Z,18528.00
2018-09-06T07:13:14.680Z,18784.00
2018-09-06T07:14:14.931Z,18848.00
2018-09-06T07:15:15.177Z,18976.00
2018-09-06T07:16:15.424Z,19616.00
2018-09-06T07:17:15.674Z,20128.00
2018-09-06T07:18:15.955Z,19968.00
2018-09-06T07:19:16.169Z,19456.00
2018-09-06T07:20:16.417Z,19648.00
2018-09-06T07:21:16.669Z,20928.00
2018-09-06T07:22:16.917Z,22720.00
2018-09-06T07:23:17.168Z,23424.00
2018-09-06T07:24:17.417Z,24352.00
2018-09-06T07:25:17.657Z,25952.00
2018-09-06T07:26:17.908Z,28224.00
2018-09-06T07:27:18.149Z,30656.00
2018-09-06T07:28:18.397Z,30336.00
2018-09-06T07:29:18.654Z,27360.00
2018-09-06T07:30:18.887Z,24256.00
2018-09-06T07:31:19.135Z,22880.00
2018-09-06T07:32:19.384Z,23072.00
2018-09-06T07:33:19.642Z,23136.00
2018-09-06T07:34:19.877Z,23232.00
2018-09-06T07:35:20.206Z,23232.00
2018-09-06T07:36:20.369Z,23296.00
2018-09-06T07:37:20.634Z,23392.00
2018-09-06T07:38:20.850Z,23328.00
2018-09-06T07:39:21.104Z,22880.00
2018-09-06T07:40:21.347Z,22944.00
2018-09-06T07:41:21.634Z,22720.00
2018-09-06T07:42:21.849Z,22464.00
2018-09-06T07:43:22.099Z,22272.00
2018-09-06T07:44:22.359Z,22240.00
2018-09-06T07:45:22.678Z,22336.00
2018-09-06T07:46:22.890Z,23872.00
2018-09-06T07:47:23.132Z,26592.00
2018-09-06T07:48:23.383Z,29920.00
2018-09-06T07:49:23.643Z,31072.00
2018-09-06T07:50:23.885Z,31648.00
2018-09-06T07:51:24.134Z,32448.00
2018-09-06T07:52:24.470Z,32448.00
2018-09-06T07:53:24.630Z,31648.00
2018-09-06T07:54:24.897Z,31712.00
2018-09-06T07:55:25.159Z,32448.00
2018-09-06T07:56:25.397Z,33312.00
2018-09-06T07:57:25.649Z,35200.00
2018-09-06T07:58:25.907Z,36416.00
2018-09-06T07:59:26.156Z,37024.00
2018-09-06T08:00:26.408Z,36096.00
2018-09-06T08:01:26.718Z,36352.00
2018-09-06T08:02:26.909Z,37568.00
2018-09-06T08:03:27.165Z,39008.00
2018-09-06T08:04:27.415Z,39296.00
2018-09-06T08:05:27.667Z,39040.00
2018-09-06T08:06:27.929Z,38976.00
2018-09-06T08:07:28.171Z,39712.00
2018-09-06T08:08:28.424Z,41792.00
2018-09-06T08:09:28.675Z,43712.00
2018-09-06T08:10:28.930Z,43616.00
2018-09-06T08:11:29.182Z,42528.00
2018-09-06T08:12:29.433Z,40704.00
2018-09-06T08:13:29.685Z,41056.00
2018-09-06T08:14:29.939Z,43776.00
2018-09-06T08:15:30.192Z,45728.00
2018-09-06T08:16:30.444Z,47168.00
2018-09-06T08:17:30.698Z,46528.00
2018-09-06T08:18:30.946Z,46080.00
2018-09-06T08:19:31.204Z,47616.00
2018-09-06T08:20:31.455Z,47136.00
2018-09-06T08:21:31.706Z,47488.00
2018-09-06T08:22:31.958Z,48512.00
2018-09-06T08:23:32.211Z,49376.00
2018-09-06T08:24:32.465Z,50592.00
2018-09-06T08:25:32.723Z,48576.00
2018-09-06T08:26:32.975Z,48032.00
2018-09-06T08:27:33.230Z,48448.00
2018-09-06T08:28:33.491Z,49984.00
2018-09-06T08:29:33.738Z,52096.00
2018-09-06T08:30:34.061Z,54048.00
2018-09-06T08:31:34.251Z,54688.00
2018-09-06T08:32:34.505Z,53184.00
2018-09-06T08:33:34.759Z,54048.00
2018-09-06T08:34:35.011Z,57216.00
2018-09-06T08:35:35.264Z,56000.00
2018-09-06T08:36:35.520Z,55456.00
2018-09-06T08:37:35.767Z,53280.00
2018-09-06T08:38:36.025Z,51552.00
2018-09-06T08:39:36.281Z,51456.00
2018-09-06T08:40:36.532Z,52576.00
2018-09-06T08:41:36.795Z,54560.00
2018-09-06T08:42:37.040Z,54880.00
2018-09-06T08:43:37.312Z,56608.00
2018-09-06T08:46:09.638Z,57600.00
2018-09-06T08:47:09.893Z,57280.00
2018-09-06T08:48:10.148Z,57696.00
2018-09-06T08:49:10.402Z,61856.00
2018-09-06T08:50:10.655Z,65184.00
2018-09-06T08:51:10.909Z,64576.00
2018-09-06T08:52:11.251Z,64256.00
2018-09-06T08:53:11.417Z,60576.00
2018-09-06T08:54:11.671Z,63872.00
2018-09-06T08:55:11.926Z,64640.00
2018-09-06T08:56:12.179Z,60480.00
2018-09-06T08:57:12.433Z,57152.00
2018-09-06T08:58:12.687Z,53792.00
2018-09-06T08:59:12.941Z,55552.00
2018-09-06T09:00:13.199Z,53504.00
2018-09-06T09:01:13.454Z,55040.00
2018-09-06T09:02:13.814Z,60352.00
2018-09-06T09:03:13.976Z,64864.00
2018-09-06T09:04:14.215Z,61152.00
2018-09-06T09:05:14.470Z,67392.00
2018-09-06T09:06:14.724Z,72288.00
2018-09-06T09:07:14.978Z,63008.00
2018-09-06T09:08:15.240Z,56448.00
2018-09-06T09:09:15.488Z,63552.00
2018-09-06T09:10:15.742Z,67488.00
2018-09-06T09:11:15.997Z,71488.00
2018-09-06T09:12:16.251Z,68640.00
2018-09-06T09:13:16.548Z,66016.00
2018-09-06T09:14:16.759Z,65280.00
2018-09-06T09:15:17.017Z,66464.00
2018-09-06T09:16:17.365Z,68448.00
2018-09-06T09:17:17.526Z,65920.00
2018-09-06T09:18:17.814Z,66208.00
2018-09-06T09:19:18.035Z,67840.00
2018-09-06T09:20:18.291Z,67712.00
2018-09-06T09:21:18.545Z,68640.00
2018-09-06T09:22:18.825Z,70080.00
2018-09-06T09:23:19.057Z,70368.00
2018-09-06T09:24:19.311Z,68320.00
2018-09-06T09:25:19.580Z,67584.00
2018-09-06T09:26:19.820Z,69120.00
2018-09-06T09:27:20.075Z,69696.00
2018-09-06T09:28:20.329Z,68320.00
2018-09-06T09:29:20.590Z,66368.00
2018-09-06T09:30:20.842Z,62496.00
2018-09-06T09:31:21.097Z,62656.00
2018-09-06T09:32:21.353Z,56800.00
2018-09-06T09:33:21.609Z,59328.00
2018-09-06T09:34:21.870Z,61792.00
2018-09-06T09:35:22.125Z,62432.00
2018-09-06T09:36:22.383Z,59648.00
2018-09-06T09:37:22.629Z,57952.00
2018-09-06T09:38:22.882Z,55264.00
2018-09-06T09:39:23.138Z,54112.00
2018-09-06T09:40:23.391Z,61600.00
2018-09-06T09:41:23.649Z,70560.00
2018-09-06T09:42:23.915Z,76928.00
2018-09-06T09:43:24.216Z,84864.00
2018-09-06T09:44:24.407Z,79456.00
2018-09-06T09:45:24.661Z,78912.00
2018-09-06T09:47:56.507Z,69600.00
2018-09-06T09:48:56.764Z,72992.00
2018-09-06T09:49:57.019Z,72448.00
2018-09-06T09:50:57.275Z,72320.00
2018-09-06T09:51:57.537Z,72832.00
2018-09-06T09:52:57.787Z,77472.00
2018-09-06T09:53:58.046Z,81504.00
2018-09-06T09:54:58.295Z,84032.00
2018-09-06T09:55:58.551Z,81184.00
2018-09-06T09:56:58.848Z,78432.00
2018-09-06T09:57:59.049Z,74688.00
2018-09-06T09:58:59.328Z,73216.00
2018-09-06T09:59:59.584Z,75552.00
2018-09-06T10:00:59.838Z,77472.00
2018-09-06T10:02:00.093Z,75968.00
2018-09-06T10:03:00.348Z,76640.00
2018-09-06T10:04:00.605Z,78784.00
2018-09-06T10:05:00.877Z,76992.00
2018-09-06T10:06:01.116Z,74464.00
2018-09-06T10:07:01.372Z,76480.00
2018-09-06T10:08:01.628Z,80096.00
2018-09-06T10:09:01.883Z,80704.00
2018-09-06T10:10:02.139Z,78784.00
2018-09-06T10:11:02.396Z,77568.00
2018-09-06T10:12:02.653Z,73120.00
2018-09-06T10:13:02.905Z,72480.00
2018-09-06T10:14:03.161Z,67872.00
2018-09-06T10:15:03.427Z,75616.00
2018-09-06T10:16:03.672Z,80320.00
2018-09-06T10:17:03.932Z,75232.00
2018-09-06T10:18:04.244Z,70656.00
2018-09-06T10:19:04.450Z,76512.00
2018-09-06T10:20:04.699Z,79360.00
2018-09-06T10:21:04.956Z,79200.00
2018-09-06T10:22:05.216Z,78336.00
2018-09-06T10:23:05.481Z,83488.00
2018-09-06T10:24:05.758Z,76000.00
2018-09-06T10:25:06.009Z,74656.00
2018-09-06T10:26:06.270Z,72576.00
2018-09-06T10:27:06.527Z,71456.00
2018-09-06T10:28:06.784Z,67168.00
2018-09-06T10:29:07.043Z,61824.00
2018-09-06T10:30:07.296Z,60256.00
2018-09-06T10:31:07.553Z,66432.00
2018-09-06T10:32:07.810Z,69888.00
2018-09-06T10:33:08.067Z,70112.00
2018-09-06T10:34:08.320Z,67424.00
2018-09-06T10:35:08.579Z,63712.00
2018-09-06T10:36:08.830Z,62688.00
2018-09-06T10:37:09.095Z,60224.00
2018-09-06T10:38:09.354Z,52064.00
2018-09-06T10:39:09.632Z,39584.00
2018-09-06T10:40:09.845Z,33600.00
2018-09-06T10:41:10.103Z,38432.00
2018-09-06T10:42:10.358Z,38848.00
2018-09-06T10:43:10.614Z,43424.00
2018-09-06T10:44:10.867Z,25472.00
2018-09-06T10:45:11.120Z,21792.00
2018-09-06T10:46:11.377Z,20192.00
2018-09-06T10:47:11.635Z,19552.00
2018-09-06T10:48:11.894Z,22656.00
2018-09-06T10:49:12.146Z,22976.00
2018-09-06T10:50:12.401Z,30976.00
2018-09-06T10:51:12.667Z,32160.00
2018-09-06T10:52:12.910Z,25984.00
2018-09-06T10:53:13.165Z,21056.00
2018-09-06T10:54:13.425Z,20704.00
2018-09-06T10:55:13.668Z,20896.00
2018-09-06T10:56:13.922Z,20480.00
2018-09-06T10:57:21.821Z,20704.00
2018-09-06T10:58:14.514Z,20192.00
2018-09-06T10:59:14.762Z,19328.00
2018-09-06T11:00:15.016Z,18464.00
2018-09-06T11:01:15.266Z,17216.00
2018-09-06T11:02:15.519Z,15728.00
2018-09-06T11:03:15.777Z,14788.00
2018-09-06T11:04:16.020Z,14056.00
2018-09-06T11:05:16.266Z,13572.00
2018-09-06T11:06:16.518Z,13304.00
2018-09-06T11:07:16.763Z,13180.00
2018-09-06T11:08:17.067Z,13000.00
2018-09-06T11:09:17.255Z,12744.00
2018-09-06T11:10:17.494Z,12476.00
2018-09-06T11:11:17.742Z,12228.00
2018-09-06T11:12:17.993Z,11956.00
2018-09-06T11:13:18.246Z,11604.00
2018-09-06T11:14:18.486Z,11164.00
2018-09-06T11:15:18.753Z,10716.00
2018-09-06T11:16:19.008Z,10248.00
2018-09-06T11:17:19.245Z,9640.00
2018-09-06T11:18:19.503Z,9036.00
2018-09-06T11:19:19.742Z,8544.00
2018-09-06T11:20:20.012Z,8140.00
2018-09-06T11:21:20.349Z,7804.00
2018-09-06T11:22:20.652Z,7496.00
2018-09-06T11:23:20.760Z,7168.00
2018-09-06T11:24:21.012Z,6872.00
2018-09-06T11:25:21.248Z,6592.00
2018-09-06T11:26:21.485Z,6348.00
2018-09-06T11:27:21.788Z,6184.00
2018-09-06T11:28:21.982Z,6068.00
2018-09-06T11:29:22.234Z,6100.00
2018-09-06T11:30:22.476Z,6172.00
2018-09-06T11:31:22.730Z,6300.00
2018-09-06T11:32:22.972Z,6444.00
2018-09-06T11:33:23.286Z,6604.00
2018-09-06T11:34:23.464Z,6656.00
2018-09-06T11:35:23.712Z,6724.00
2018-09-06T11:36:23.953Z,6860.00
2018-09-06T11:37:24.206Z,7012.00
2018-09-06T11:38:24.445Z,7196.00
2018-09-06T11:39:24.706Z,7488.00
2018-09-06T11:40:24.964Z,7860.00
2018-09-06T11:41:25.200Z,8224.00
2018-09-06T11:42:25.451Z,8492.00
2018-09-06T11:43:25.708Z,8788.00
2018-09-06T11:44:25.940Z,9096.00
2018-09-06T11:45:26.212Z,9492.00
2018-09-06T11:46:26.454Z,9988.00
2018-09-06T11:47:26.833Z,10512.00
2018-09-06T11:48:26.921Z,11080.00
2018-09-06T11:49:27.187Z,11932.00
2018-09-06T11:50:27.410Z,13472.00
2018-09-06T11:51:27.652Z,20512.00
2018-09-06T11:52:27.903Z,33536.00
2018-09-06T11:53:28.144Z,24480.00
2018-09-06T11:54:28.387Z,26944.00
2018-09-06T11:55:28.636Z,32256.00
2018-09-06T11:56:28.865Z,28096.00
2018-09-06T11:57:29.130Z,28640.00
2018-09-06T11:58:29.358Z,25216.00
2018-09-06T11:59:29.609Z,23552.00
2018-09-06T12:00:29.850Z,22720.00
2018-09-06T12:01:30.123Z,22944.00
2018-09-06T12:02:30.339Z,23136.00
2018-09-06T12:03:30.584Z,21920.00
2018-09-06T12:04:30.831Z,20928.00
2018-09-06T12:05:31.104Z,19872.00
2018-09-06T12:06:31.317Z,18912.00
2018-09-06T12:07:31.565Z,18080.00
2018-09-06T12:08:31.802Z,16992.00
2018-09-06T12:09:32.055Z,15956.00
2018-09-06T12:10:32.305Z,14788.00
2018-09-06T12:11:32.521Z,13640.00
2018-09-06T12:12:32.851Z,12716.00
2018-09-06T12:13:33.105Z,11956.00
2018-09-06T12:14:33.339Z,11272.00
2018-09-06T12:15:33.585Z,10836.00
2018-09-06T12:16:33.827Z,10640.00
2018-09-06T12:17:34.071Z,10576.00
2018-09-06T12:18:34.318Z,10588.00
2018-09-06T12:19:34.647Z,10544.00
2018-09-06T12:20:34.815Z,10392.00
2018-09-06T12:21:35.063Z,10104.00
2018-09-06T12:22:35.309Z,9712.00
2018-09-06T12:23:35.557Z,9332.00
2018-09-06T12:24:35.806Z,8916.00
2018-09-06T12:25:36.096Z,8484.00
2018-09-06T12:26:36.298Z,8072.00
2018-09-06T12:27:36.545Z,7780.00
2018-09-06T12:28:36.793Z,7724.00
2018-09-06T12:29:37.047Z,7964.00
2018-09-06T12:30:37.289Z,8516.00
2018-09-06T12:31:37.536Z,9440.00
2018-09-06T12:32:37.784Z,10712.00
2018-09-06T12:33:38.112Z,12052.00
2018-09-06T12:34:38.280Z,13228.00
2018-09-06T12:35:38.527Z,14340.00
2018-09-06T12:36:38.774Z,14968.00
2018-09-06T12:37:39.024Z,15524.00
2018-09-06T12:38:39.321Z,15440.00
2018-09-06T12:39:39.519Z,14820.00
2018-09-06T12:40:39.767Z,13904.00
2018-09-06T12:41:40.016Z,12988.00
2018-09-06T12:42:40.264Z,12248.00
2018-09-06T12:43:40.512Z,11632.00
2018-09-06T12:44:40.759Z,10616.00
2018-09-06T12:45:41.008Z,10132.00
2018-09-06T12:46:41.251Z,9784.00
2018-09-06T12:47:41.510Z,9492.00
2018-09-06T12:48:41.756Z,9208.00
2018-09-06T12:49:42.072Z,8904.00
2018-09-06T12:50:42.253Z,8552.00
2018-09-06T12:51:42.502Z,8156.00
2018-09-06T12:52:42.752Z,7900.00
2018-09-06T12:53:43.000Z,7736.00
2018-09-06T12:54:43.248Z,7628.00
2018-09-06T12:55:43.494Z,7588.00
2018-09-06T12:56:43.767Z,7632.00
2018-09-06T12:57:43.991Z,7740.00
2018-09-06T12:58:44.239Z,7908.00
2018-09-06T12:59:44.486Z,8164.00
2018-09-06T13:00:44.737Z,8416.00
2018-09-06T13:01:44.984Z,8664.00
2018-09-06T13:02:45.233Z,8888.00
2018-09-06T13:03:45.482Z,9112.00
2018-09-06T13:04:52.849Z,9332.00
2018-09-06T13:05:53.600Z,9492.00
2018-09-06T13:06:46.282Z,9568.00
2018-09-06T13:07:46.527Z,9592.00
2018-09-06T13:08:46.774Z,9556.00